sensor_id;sensor_type;location;lat;lon;timestamp;pressure;altitude;pressure_sealevel;temperature;humidity
60583;BME280;46415;47.536;19.066;2023-02-02T00:01:34;100176.31;;;3.19;100.00
60583;BME280;46415;47.536;19.066;2023-02-02T00:04:37;100174.62;;;3.18;100.00
60583;BME280;46415;47.536;19.066;2023-02-02T00:07:40;100175.41;;;3.22;100.00
60583;BME280;46415;47.536;19.066;2023-02-02T00:10:43;100195.81;;;3.28;100.00
60583;BME280;46415;47.536;19.066;2023-02-02T00:13:46;100191.75;;;3.16;100.00
60583;BME280;46415;47.536;19.066;2023-02-02T00:16:53;100190.13;;;3.11;100.00
60583;BME280;46415;47.536;19.066;2023-02-02T00:19:56;100194.41;;;3.10;100.00
60583;BME280;46415;47.536;19.066;2023-02-02T00:22:59;100195.22;;;3.14;100.00
60583;BME280;46415;47.536;19.066;2023-02-02T00:26:02;100188.47;;;3.08;100.00
60583;BME280;46415;47.536;19.066;2023-02-02T00:29:07;100188.66;;;2.96;100.00
60583;BME280;46415;47.536;19.066;2023-02-02T00:32:10;100175.87;;;2.93;100.00
60583;BME280;46415;47.536;19.066;2023-02-02T00:35:14;100168.94;;;3.00;100.00
60583;BME280;46415;47.536;19.066;2023-02-02T00:38:17;100110.97;;;2.93;100.00
60583;BME280;46415;47.536;19.066;2023-02-02T00:41:20;100112.66;;;2.94;100.00
60583;BME280;46415;47.536;19.066;2023-02-02T00:44:23;100128.91;;;2.93;100.00
60583;BME280;46415;47.536;19.066;2023-02-02T00:47:47;100112.19;;;3.21;100.00
60583;BME280;46415;47.536;19.066;2023-02-02T00:50:51;100116.41;;;3.23;100.00
60583;BME280;46415;47.536;19.066;2023-02-02T00:53:54;100140.97;;;3.35;100.00
60583;BME280;46415;47.536;19.066;2023-02-02T00:56:56;100136.38;;;3.52;100.00
60583;BME280;46415;47.536;19.066;2023-02-02T00:59:59;100142.22;;;3.60;100.00
60583;BME280;46415;47.536;19.066;2023-02-02T01:03:02;100155.81;;;3.65;100.00
60583;BME280;46415;47.536;19.066;2023-02-02T01:06:06;100174.41;;;3.77;100.00
60583;BME280;46415;47.536;19.066;2023-02-02T01:09:09;100168.38;;;3.81;100.00
60583;BME280;46415;47.536;19.066;2023-02-02T01:12:11;100159.72;;;3.85;100.00
60583;BME280;46415;47.536;19.066;2023-02-02T01:15:14;100173.50;;;3.81;100.00
60583;BME280;46415;47.536;19.066;2023-02-02T01:18:17;100154.81;;;3.73;100.00
60583;BME280;46415;47.536;19.066;2023-02-02T01:21:20;100141.25;;;3.67;100.00
60583;BME280;46415;47.536;19.066;2023-02-02T01:24:24;100127.59;;;3.65;100.00
60583;BME280;46415;47.536;19.066;2023-02-02T01:27:27;100149.16;;;3.57;100.00
60583;BME280;46415;47.536;19.066;2023-02-02T01:30:30;100149.16;;;3.55;100.00
60583;BME280;46415;47.536;19.066;2023-02-02T01:33:33;100164.50;;;3.58;100.00
60583;BME280;46415;47.536;19.066;2023-02-02T01:36:37;100144.94;;;3.53;100.00
60583;BME280;46415;47.536;19.066;2023-02-02T01:39:40;100170.59;;;3.53;100.00
60583;BME280;46415;47.536;19.066;2023-02-02T01:42:43;100175.78;;;3.51;100.00
60583;BME280;46415;47.536;19.066;2023-02-02T01:45:45;100151.66;;;3.58;100.00
60583;BME280;46415;47.536;19.066;2023-02-02T01:52:09;100138.94;;;3.52;100.00
60583;BME280;46415;47.536;19.066;2023-02-02T01:55:15;100143.06;;;3.61;100.00
60583;BME280;46415;47.536;19.066;2023-02-02T01:58:25;100138.78;;;3.61;100.00
60583;BME280;46415;47.536;19.066;2023-02-02T02:01:30;100135.28;;;3.65;100.00
60583;BME280;46415;47.536;19.066;2023-02-02T02:04:33;100135.00;;;3.81;100.00
60583;BME280;46415;47.536;19.066;2023-02-02T02:07:39;100116.09;;;3.85;100.00
60583;BME280;46415;47.536;19.066;2023-02-02T02:10:44;100127.06;;;3.91;100.00
60583;BME280;46415;47.536;19.066;2023-02-02T02:13:48;100128.78;;;3.91;100.00
60583;BME280;46415;47.536;19.066;2023-02-02T02:34:52;100119.66;;;3.78;100.00
60583;BME280;46415;47.536;19.066;2023-02-02T02:38:03;100118.06;;;3.70;100.00
60583;BME280;46415;47.536;19.066;2023-02-02T02:41:16;100126.72;;;3.66;100.00
60583;BME280;46415;47.536;19.066;2023-02-02T02:44:21;100135.28;;;3.65;100.00
60583;BME280;46415;47.536;19.066;2023-02-02T02:47:24;100138.09;;;3.52;100.00
60583;BME280;46415;47.536;19.066;2023-02-02T02:50:27;100133.81;;;3.52;100.00
60583;BME280;46415;47.536;19.066;2023-02-02T02:53:30;100136.47;;;3.48;100.00
60583;BME280;46415;47.536;19.066;2023-02-02T02:56:51;100147.59;;;3.48;100.00
60583;BME280;46415;47.536;19.066;2023-02-02T03:03:33;100151.88;;;3.46;100.00
60583;BME280;46415;47.536;19.066;2023-02-02T03:06:56;100152.78;;;3.45;100.00
60583;BME280;46415;47.536;19.066;2023-02-02T03:10:04;100151.88;;;3.46;100.00
60583;BME280;46415;47.536;19.066;2023-02-02T03:13:10;100164.78;;;3.43;100.00
60583;BME280;46415;47.536;19.066;2023-02-02T03:16:15;100143.31;;;3.47;100.00
60583;BME280;46415;47.536;19.066;2023-02-02T03:19:17;100140.00;;;3.44;100.00
60583;BME280;46415;47.536;19.066;2023-02-02T03:22:21;100138.31;;;3.41;100.00
60583;BME280;46415;47.536;19.066;2023-02-02T03:25:23;100136.56;;;3.43;100.00
60583;BME280;46415;47.536;19.066;2023-02-02T03:28:27;100146.00;;;3.41;100.00
60583;BME280;46415;47.536;19.066;2023-02-02T03:31:30;100145.22;;;3.38;100.00
60583;BME280;46415;47.536;19.066;2023-02-02T03:34:34;100147.78;;;3.38;100.00
60583;BME280;46415;47.536;19.066;2023-02-02T03:37:36;100144.41;;;3.34;100.00
60583;BME280;46415;47.536;19.066;2023-02-02T03:40:40;100137.66;;;3.30;100.00
60583;BME280;46415;47.536;19.066;2023-02-02T03:43:42;100122.37;;;3.24;100.00
60583;BME280;46415;47.536;19.066;2023-02-02T03:46:45;100123.22;;;3.24;100.00
60583;BME280;46415;47.536;19.066;2023-02-02T03:49:48;100133.56;;;3.20;100.00
60583;BME280;46415;47.536;19.066;2023-02-02T03:52:52;100139.59;;;3.16;100.00
60583;BME280;46415;47.536;19.066;2023-02-02T03:55:56;100139.59;;;3.16;100.00
60583;BME280;46415;47.536;19.066;2023-02-02T03:58:59;100141.34;;;3.15;100.00
60583;BME280;46415;47.536;19.066;2023-02-02T04:02:01;100132.81;;;3.15;100.00
60583;BME280;46415;47.536;19.066;2023-02-02T04:05:05;100128.63;;;3.09;100.00
60583;BME280;46415;47.536;19.066;2023-02-02T04:08:07;100125.28;;;3.04;100.00
60583;BME280;46415;47.536;19.066;2023-02-02T04:11:11;100118.50;;;3.02;100.00
60583;BME280;46415;47.536;19.066;2023-02-02T04:14:14;100107.41;;;3.01;100.00
60583;BME280;46415;47.536;19.066;2023-02-02T04:17:17;100103.25;;;2.94;100.00
60583;BME280;46415;47.536;19.066;2023-02-02T04:20:19;100099.16;;;2.85;100.00
60583;BME280;46415;47.536;19.066;2023-02-02T04:23:22;100101.75;;;2.81;100.00
60583;BME280;46415;47.536;19.066;2023-02-02T04:26:25;100092.41;;;2.80;100.00
60583;BME280;46415;47.536;19.066;2023-02-02T04:29:28;100106.97;;;2.76;100.00
60583;BME280;46415;47.536;19.066;2023-02-02T04:32:31;100111.31;;;2.73;100.00
60583;BME280;46415;47.536;19.066;2023-02-02T04:35:34;100109.62;;;2.70;100.00
60583;BME280;46415;47.536;19.066;2023-02-02T04:38:36;100111.31;;;2.71;100.00
60583;BME280;46415;47.536;19.066;2023-02-02T04:41:39;100106.31;;;2.64;100.00
60583;BME280;46415;47.536;19.066;2023-02-02T04:44:42;100123.44;;;2.62;100.00
60583;BME280;46415;47.536;19.066;2023-02-02T04:47:47;100133.72;;;2.59;100.00
60583;BME280;46415;47.536;19.066;2023-02-02T04:50:49;100129.56;;;2.52;100.00
60583;BME280;46415;47.536;19.066;2023-02-02T04:53:52;100124.47;;;2.50;100.00
60583;BME280;46415;47.536;19.066;2023-02-02T04:56:55;100140.47;;;2.64;100.00
60583;BME280;46415;47.536;19.066;2023-02-02T04:59:58;100130.19;;;2.67;100.00
60583;BME280;46415;47.536;19.066;2023-02-02T05:03:00;100136.28;;;2.60;100.00
60583;BME280;46415;47.536;19.066;2023-02-02T05:06:04;100121.91;;;2.50;100.00
60583;BME280;46415;47.536;19.066;2023-02-02T05:09:07;100132.19;;;2.47;100.00
60583;BME280;46415;47.536;19.066;2023-02-02T05:12:10;100135.84;;;2.31;100.00
60583;BME280;46415;47.536;19.066;2023-02-02T05:15:12;100150.38;;;2.27;100.00
60583;BME280;46415;47.536;19.066;2023-02-02T05:18:15;100153.06;;;2.20;100.00
60583;BME280;46415;47.536;19.066;2023-02-02T05:21:19;100168.53;;;2.11;100.00
60583;BME280;46415;47.536;19.066;2023-02-02T05:24:22;100179.56;;;2.16;100.00
60583;BME280;46415;47.536;19.066;2023-02-02T05:27:24;100187.81;;;2.37;100.00
60583;BME280;46415;47.536;19.066;2023-02-02T05:30:27;100198.25;;;2.22;100.00
60583;BME280;46415;47.536;19.066;2023-02-02T05:33:30;100203.63;;;2.02;100.00
60583;BME280;46415;47.536;19.066;2023-02-02T05:36:33;100218.81;;;2.15;100.00
60583;BME280;46415;47.536;19.066;2023-02-02T05:39:36;100222.91;;;2.31;100.00
60583;BME280;46415;47.536;19.066;2023-02-02T05:42:39;100226.53;;;2.12;100.00
60583;BME280;46415;47.536;19.066;2023-02-02T05:45:41;100228.13;;;2.22;100.00
60583;BME280;46415;47.536;19.066;2023-02-02T05:48:45;100234.34;;;2.02;100.00
60583;BME280;46415;47.536;19.066;2023-02-02T05:51:49;100228.50;;;1.90;100.00
60583;BME280;46415;47.536;19.066;2023-02-02T05:54:53;100240.47;;;1.89;100.00
60583;BME280;46415;47.536;19.066;2023-02-02T05:57:56;100244.59;;;1.99;100.00
60583;BME280;46415;47.536;19.066;2023-02-02T06:01:08;100231.69;;;2.09;100.00
60583;BME280;46415;47.536;19.066;2023-02-02T06:04:11;100233.44;;;2.05;100.00
60583;BME280;46415;47.536;19.066;2023-02-02T06:07:15;100223.25;;;2.02;100.00
60583;BME280;46415;47.536;19.066;2023-02-02T06:10:18;100219.91;;;1.95;100.00
60583;BME280;46415;47.536;19.066;2023-02-02T06:13:21;100224.09;;;2.02;100.00
60583;BME280;46415;47.536;19.066;2023-02-02T06:16:24;100217.09;;;2.18;100.00
60583;BME280;46415;47.536;19.066;2023-02-02T06:19:27;100218.72;;;2.22;100.00
60583;BME280;46415;47.536;19.066;2023-02-02T06:22:31;100232.50;;;2.14;100.00
60583;BME280;46415;47.536;19.066;2023-02-02T06:25:33;100235.28;;;1.95;100.00
60583;BME280;46415;47.536;19.066;2023-02-02T06:28:36;100235.41;;;1.83;100.00
60583;BME280;46415;47.536;19.066;2023-02-02T06:31:39;100227.69;;;1.86;100.00
60583;BME280;46415;47.536;19.066;2023-02-02T06:34:42;100216.63;;;1.84;100.00
60583;BME280;46415;47.536;19.066;2023-02-02T06:37:45;100220.00;;;1.86;100.00
60583;BME280;46415;47.536;19.066;2023-02-02T06:40:48;100215.44;;;2.13;100.00
60583;BME280;46415;47.536;19.066;2023-02-02T06:43:51;100211.81;;;2.29;100.00
60583;BME280;46415;47.536;19.066;2023-02-02T06:46:54;100215.22;;;2.31;100.00
60583;BME280;46415;47.536;19.066;2023-02-02T06:49:57;100215.94;;;2.39;100.00
60583;BME280;46415;47.536;19.066;2023-02-02T06:53:00;100206.47;;;2.47;100.00
60583;BME280;46415;47.536;19.066;2023-02-02T06:56:04;100210.53;;;2.62;100.00
60583;BME280;46415;47.536;19.066;2023-02-02T06:59:08;100210.56;;;2.59;100.00
60583;BME280;46415;47.536;19.066;2023-02-02T07:02:11;100214.69;;;2.69;100.00
60583;BME280;46415;47.536;19.066;2023-02-02T07:05:15;100221.47;;;2.73;100.00
60583;BME280;46415;47.536;19.066;2023-02-02T07:08:17;100229.12;;;2.74;100.00
60583;BME280;46415;47.536;19.066;2023-02-02T07:11:21;100228.16;;;2.83;100.00
60583;BME280;46415;47.536;19.066;2023-02-02T07:14:24;100223.78;;;2.90;100.00
60583;BME280;46415;47.536;19.066;2023-02-02T07:17:27;100235.69;;;2.94;100.00
60583;BME280;46415;47.536;19.066;2023-02-02T07:20:30;100250.19;;;2.96;100.00
60583;BME280;46415;47.536;19.066;2023-02-02T07:23:33;100262.28;;;2.86;100.00
60583;BME280;46415;47.536;19.066;2023-02-02T07:26:36;100285.34;;;2.86;100.00
60583;BME280;46415;47.536;19.066;2023-02-02T07:29:39;100281.91;;;2.87;100.00
60583;BME280;46415;47.536;19.066;2023-02-02T07:32:49;100294.63;;;2.94;100.00
60583;BME280;46415;47.536;19.066;2023-02-02T07:35:52;100302.25;;;3.00;100.00
60583;BME280;46415;47.536;19.066;2023-02-02T07:38:54;100302.13;;;3.09;100.00
60583;BME280;46415;47.536;19.066;2023-02-02T07:41:59;100311.13;;;3.34;100.00
60583;BME280;46415;47.536;19.066;2023-02-02T07:45:03;100314.41;;;3.45;100.00
60583;BME280;46415;47.536;19.066;2023-02-02T07:48:30;100326.00;;;3.69;99.50
60583;BME280;46415;47.536;19.066;2023-02-02T07:51:33;100323.88;;;3.92;98.53
60583;BME280;46415;47.536;19.066;2023-02-02T07:54:38;100335.37;;;4.18;96.68
60583;BME280;46415;47.536;19.066;2023-02-02T07:57:41;100322.03;;;4.46;94.87
60583;BME280;46415;47.536;19.066;2023-02-02T08:00:44;100315.00;;;4.53;92.93
60583;BME280;46415;47.536;19.066;2023-02-02T08:03:49;100314.94;;;4.58;93.02
60583;BME280;46415;47.536;19.066;2023-02-02T08:06:52;100314.84;;;4.62;93.05
60583;BME280;46415;47.536;19.066;2023-02-02T08:09:55;100323.16;;;4.75;91.19
60583;BME280;46415;47.536;19.066;2023-02-02T08:12:57;100325.47;;;4.87;90.34
60583;BME280;46415;47.536;19.066;2023-02-02T08:16:00;100315.91;;;4.92;89.53
60583;BME280;46415;47.536;19.066;2023-02-02T08:19:04;100332.97;;;4.96;89.51
60583;BME280;46415;47.536;19.066;2023-02-02T08:22:07;100333.56;;;5.07;87.31
60583;BME280;46415;47.536;19.066;2023-02-02T08:25:10;100336.56;;;5.27;86.90
60583;BME280;46415;47.536;19.066;2023-02-02T08:28:13;100319.84;;;5.45;84.85
60583;BME280;46415;47.536;19.066;2023-02-02T08:31:19;100327.19;;;5.60;84.48
60583;BME280;46415;47.536;19.066;2023-02-02T08:34:23;100329.13;;;5.86;82.21
60583;BME280;46415;47.536;19.066;2023-02-02T08:37:25;100316.75;;;6.02;79.77
60583;BME280;46415;47.536;19.066;2023-02-02T08:40:29;100307.78;;;6.17;80.63
60583;BME280;46415;47.536;19.066;2023-02-02T08:43:32;100310.94;;;6.26;79.02
60583;BME280;46415;47.536;19.066;2023-02-02T08:46:35;100300.66;;;6.55;79.54
60583;BME280;46415;47.536;19.066;2023-02-02T08:49:37;100303.72;;;6.39;79.47
60583;BME280;46415;47.536;19.066;2023-02-02T08:52:40;100313.41;;;5.98;80.92
60583;BME280;46415;47.536;19.066;2023-02-02T08:55:43;100307.50;;;6.26;79.79
60583;BME280;46415;47.536;19.066;2023-02-02T08:58:50;100289.44;;;6.27;78.53
60583;BME280;46415;47.536;19.066;2023-02-02T09:01:53;100312.03;;;6.18;78.80
60583;BME280;46415;47.536;19.066;2023-02-02T09:04:56;100314.50;;;6.22;76.42
60583;BME280;46415;47.536;19.066;2023-02-02T09:07:59;100319.91;;;6.13;77.12
60583;BME280;46415;47.536;19.066;2023-02-02T09:11:11;100330.69;;;5.95;77.17
60583;BME280;46415;47.536;19.066;2023-02-02T09:14:14;100333.00;;;6.04;77.44
60583;BME280;46415;47.536;19.066;2023-02-02T09:17:17;100326.94;;;6.06;78.01
60583;BME280;46415;47.536;19.066;2023-02-02T09:20:19;100342.78;;;5.91;76.10
60583;BME280;46415;47.536;19.066;2023-02-02T09:23:22;100337.00;;;5.82;77.26
60583;BME280;46415;47.536;19.066;2023-02-02T09:26:27;100339.41;;;5.89;77.05
60583;BME280;46415;47.536;19.066;2023-02-02T09:29:31;100345.47;;;5.85;76.18
60583;BME280;46415;47.536;19.066;2023-02-02T09:32:33;100342.13;;;5.82;75.66
60583;BME280;46415;47.536;19.066;2023-02-02T09:35:36;100338.72;;;5.81;76.62
60583;BME280;46415;47.536;19.066;2023-02-02T09:38:41;100347.47;;;5.74;76.46
60583;BME280;46415;47.536;19.066;2023-02-02T09:45:44;100348.34;;;5.73;74.44
60583;BME280;46415;47.536;19.066;2023-02-02T09:48:59;100344.75;;;5.80;74.31
60583;BME280;46415;47.536;19.066;2023-02-02T09:52:09;100345.41;;;5.90;72.55
60583;BME280;46415;47.536;19.066;2023-02-02T09:58:28;100344.97;;;6.39;70.38
60583;BME280;46415;47.536;19.066;2023-02-02T10:01:35;100338.00;;;6.42;71.63
60583;BME280;46415;47.536;19.066;2023-02-02T10:04:49;100360.09;;;6.51;71.64
60583;BME280;46415;47.536;19.066;2023-02-02T10:07:53;100358.72;;;6.38;69.63
60583;BME280;46415;47.536;19.066;2023-02-02T10:10:59;100354.53;;;6.35;69.54
60583;BME280;46415;47.536;19.066;2023-02-02T10:14:10;100349.75;;;6.20;71.91
60583;BME280;46415;47.536;19.066;2023-02-02T10:17:36;100352.41;;;6.19;72.65
60583;BME280;46415;47.536;19.066;2023-02-02T10:23:46;100347.62;;;6.03;72.45
60583;BME280;46415;47.536;19.066;2023-02-02T10:26:52;100348.34;;;5.73;74.21
60583;BME280;46415;47.536;19.066;2023-02-02T10:30:00;100334.59;;;5.74;75.03
60583;BME280;46415;47.536;19.066;2023-02-02T10:33:55;100346.16;;;5.58;75.22
60583;BME280;46415;47.536;19.066;2023-02-02T10:40:20;100333.78;;;5.72;75.06
60583;BME280;46415;47.536;19.066;2023-02-02T10:43:46;100340.28;;;5.87;74.75
60583;BME280;46415;47.536;19.066;2023-02-02T10:46:54;100338.34;;;5.96;73.72
60583;BME280;46415;47.536;19.066;2023-02-02T10:53:15;100312.97;;;6.15;72.99
60583;BME280;46415;47.536;19.066;2023-02-02T10:56:23;100329.03;;;6.25;72.65
60583;BME280;46415;47.536;19.066;2023-02-02T10:59:31;100310.91;;;6.28;73.10
60583;BME280;46415;47.536;19.066;2023-02-02T11:02:34;100309.91;;;6.32;71.95
60583;BME280;46415;47.536;19.066;2023-02-02T11:05:37;100338.37;;;6.29;72.00
60583;BME280;46415;47.536;19.066;2023-02-02T11:08:59;100320.47;;;6.24;72.50
60583;BME280;46415;47.536;19.066;2023-02-02T11:12:24;100303.16;;;6.28;73.13
60583;BME280;46415;47.536;19.066;2023-02-02T11:15:29;100319.19;;;6.39;72.31
60583;BME280;46415;47.536;19.066;2023-02-02T11:18:32;100317.25;;;6.47;71.79
60583;BME280;46415;47.536;19.066;2023-02-02T11:21:36;100324.00;;;6.51;72.32
60583;BME280;46415;47.536;19.066;2023-02-02T11:24:47;100335.81;;;6.60;72.14
60583;BME280;46415;47.536;19.066;2023-02-02T11:27:51;100321.13;;;6.62;72.17
60583;BME280;46415;47.536;19.066;2023-02-02T11:30:54;100337.03;;;6.77;72.13
60583;BME280;46415;47.536;19.066;2023-02-02T11:34:19;100321.06;;;6.92;71.95
60583;BME280;46415;47.536;19.066;2023-02-02T11:37:22;100339.66;;;7.04;69.53
60583;BME280;46415;47.536;19.066;2023-02-02T11:40:38;100344.53;;;7.42;68.80
60583;BME280;46415;47.536;19.066;2023-02-02T11:43:51;100345.53;;;7.38;68.58
60583;BME280;46415;47.536;19.066;2023-02-02T11:46:55;100362.00;;;7.05;68.57
60583;BME280;46415;47.536;19.066;2023-02-02T11:50:00;100356.19;;;6.98;68.62
60583;BME280;46415;47.536;19.066;2023-02-02T11:53:05;100368.50;;;7.18;69.36
60583;BME280;46415;47.536;19.066;2023-02-02T11:56:16;100363.22;;;6.93;69.61
60583;BME280;46415;47.536;19.066;2023-02-02T11:59:36;100366.16;;;6.79;70.33
60583;BME280;46415;47.536;19.066;2023-02-02T12:02:47;100378.75;;;6.61;70.28
60583;BME280;46415;47.536;19.066;2023-02-02T12:05:51;100367.13;;;6.46;70.97
60583;BME280;46415;47.536;19.066;2023-02-02T12:08:58;100364.41;;;6.50;71.21
60583;BME280;46415;47.536;19.066;2023-02-02T12:36:14;100367.03;;;6.17;72.24
60583;BME280;46415;47.536;19.066;2023-02-02T12:42:13;100376.47;;;6.18;73.82
60583;BME280;46415;47.536;19.066;2023-02-02T12:48:33;100358.03;;;5.99;73.80
60583;BME280;46415;47.536;19.066;2023-02-02T12:51:53;100344.28;;;6.00;74.29
60583;BME280;46415;47.536;19.066;2023-02-02T13:11:58;100364.25;;;5.90;76.00
60583;BME280;46415;47.536;19.066;2023-02-02T13:15:06;100369.09;;;6.02;75.21
60583;BME280;46415;47.536;19.066;2023-02-02T13:18:17;100375.03;;;6.06;74.96
60583;BME280;46415;47.536;19.066;2023-02-02T13:21:22;100369.16;;;6.01;74.24
60583;BME280;46415;47.536;19.066;2023-02-02T13:24:28;100375.06;;;6.04;74.16
60583;BME280;46415;47.536;19.066;2023-02-02T13:27:32;100381.59;;;6.19;73.92
60583;BME280;46415;47.536;19.066;2023-02-02T13:30:39;100377.06;;;6.27;74.68
60583;BME280;46415;47.536;19.066;2023-02-02T13:33:43;100378.38;;;6.09;73.07
60583;BME280;46415;47.536;19.066;2023-02-02T13:36:55;100374.84;;;6.13;73.87
60583;BME280;46415;47.536;19.066;2023-02-02T13:40:02;100374.91;;;6.10;72.79
60583;BME280;46415;47.536;19.066;2023-02-02T13:43:18;100389.16;;;6.25;73.81
60583;BME280;46415;47.536;19.066;2023-02-02T13:49:50;100366.59;;;6.33;72.99
60583;BME280;46415;47.536;19.066;2023-02-02T13:59:34;100381.91;;;6.70;71.19
60583;BME280;46415;47.536;19.066;2023-02-02T14:02:57;100378.19;;;6.80;70.55
60583;BME280;46415;47.536;19.066;2023-02-02T14:06:07;100377.53;;;7.03;71.84
60583;BME280;46415;47.536;19.066;2023-02-02T14:09:16;100377.47;;;7.05;69.73
60583;BME280;46415;47.536;19.066;2023-02-02T14:12:28;100383.59;;;7.02;69.83
60583;BME280;46415;47.536;19.066;2023-02-02T14:15:38;100365.66;;;6.97;70.64
60583;BME280;46415;47.536;19.066;2023-02-02T14:22:14;100393.53;;;6.54;72.42
60583;BME280;46415;47.536;19.066;2023-02-02T14:28:41;100393.37;;;6.28;73.78
60583;BME280;46415;47.536;19.066;2023-02-02T14:31:59;100384.81;;;6.26;74.87
60583;BME280;46415;47.536;19.066;2023-02-02T14:38:31;100392.38;;;5.99;75.30
60583;BME280;46415;47.536;19.066;2023-02-02T14:41:50;100389.00;;;5.97;75.55
60583;BME280;46415;47.536;19.066;2023-02-02T14:48:29;100401.50;;;6.12;74.80
60583;BME280;46415;47.536;19.066;2023-02-02T14:51:33;100397.50;;;6.67;72.75
60583;BME280;46415;47.536;19.066;2023-02-02T14:54:47;100409.72;;;6.59;71.97
60583;BME280;46415;47.536;19.066;2023-02-02T14:57:55;100401.81;;;6.33;73.28
60583;BME280;46415;47.536;19.066;2023-02-02T15:04:27;100417.38;;;6.30;73.52
60583;BME280;46415;47.536;19.066;2023-02-02T15:14:02;100416.00;;;5.80;76.10
60583;BME280;46415;47.536;19.066;2023-02-02T15:20:48;100429.12;;;5.69;77.04
60583;BME280;46415;47.536;19.066;2023-02-02T15:23:53;100436.13;;;5.64;75.85
60583;BME280;46415;47.536;19.066;2023-02-02T15:26:57;100424.47;;;5.48;76.96
60583;BME280;46415;47.536;19.066;2023-02-02T15:30:03;100430.53;;;5.44;77.93
60583;BME280;46415;47.536;19.066;2023-02-02T15:36:27;100450.37;;;5.39;77.94
60583;BME280;46415;47.536;19.066;2023-02-02T15:39:36;100454.03;;;5.28;78.36
60583;BME280;46415;47.536;19.066;2023-02-02T15:42:42;100457.53;;;5.24;78.57
60583;BME280;46415;47.536;19.066;2023-02-02T15:46:01;100472.09;;;5.25;79.31
60583;BME280;46415;47.536;19.066;2023-02-02T15:49:33;100466.16;;;5.23;79.32
60583;BME280;46415;47.536;19.066;2023-02-02T15:52:44;100472.41;;;5.12;80.26
60583;BME280;46415;47.536;19.066;2023-02-02T15:55:48;100485.53;;;4.98;81.90
60583;BME280;46415;47.536;19.066;2023-02-02T15:58:53;100485.63;;;4.92;82.93
60583;BME280;46415;47.536;19.066;2023-02-02T16:05:46;100479.03;;;4.79;83.68
60583;BME280;46415;47.536;19.066;2023-02-02T16:08:47;100488.63;;;4.69;84.85
60583;BME280;46415;47.536;19.066;2023-02-02T16:11:50;100484.19;;;4.77;84.40
60583;BME280;46415;47.536;19.066;2023-02-02T16:14:53;100496.25;;;4.74;85.05
60583;BME280;46415;47.536;19.066;2023-02-02T16:18:00;100498.19;;;4.61;85.77
60583;BME280;46415;47.536;19.066;2023-02-02T16:21:10;100499.91;;;4.62;86.18
60583;BME280;46415;47.536;19.066;2023-02-02T16:24:38;100494.75;;;4.64;86.11
60583;BME280;46415;47.536;19.066;2023-02-02T16:27:45;100510.09;;;4.67;86.69
60583;BME280;46415;47.536;19.066;2023-02-02T16:30:50;100516.09;;;4.66;86.75
60583;BME280;46415;47.536;19.066;2023-02-02T16:33:53;100514.47;;;4.62;86.07
60583;BME280;46415;47.536;19.066;2023-02-02T16:37:28;100507.75;;;4.53;86.70
60583;BME280;46415;47.536;19.066;2023-02-02T16:40:31;100522.47;;;4.43;87.56
60583;BME280;46415;47.536;19.066;2023-02-02T16:43:35;100539.78;;;4.32;88.47
60583;BME280;46415;47.536;19.066;2023-02-02T16:46:47;100535.78;;;4.15;90.27
60583;BME280;46415;47.536;19.066;2023-02-02T16:53:20;100546.75;;;4.26;90.12
60583;BME280;46415;47.536;19.066;2023-02-02T16:59:34;100573.19;;;4.34;91.10
60583;BME280;46415;47.536;19.066;2023-02-02T17:02:39;100574.22;;;4.22;91.78
60583;BME280;46415;47.536;19.066;2023-02-02T17:05:51;100573.97;;;4.37;90.76
60583;BME280;46415;47.536;19.066;2023-02-02T17:08:55;100581.06;;;4.22;91.93
60583;BME280;46415;47.536;19.066;2023-02-02T17:15:35;100584.75;;;4.02;92.76
60583;BME280;46415;47.536;19.066;2023-02-02T17:18:38;100593.31;;;4.03;93.31
60583;BME280;46415;47.536;19.066;2023-02-02T17:21:41;100596.81;;;3.97;93.44
60583;BME280;46415;47.536;19.066;2023-02-02T17:24:46;100593.37;;;3.97;93.78
60583;BME280;46415;47.536;19.066;2023-02-02T17:27:49;100592.53;;;3.96;93.44
60583;BME280;46415;47.536;19.066;2023-02-02T17:31:05;100587.34;;;3.99;93.40
60583;BME280;46415;47.536;19.066;2023-02-02T17:34:11;100612.31;;;3.90;94.11
60583;BME280;46415;47.536;19.066;2023-02-02T17:37:17;100610.59;;;3.89;94.66
60583;BME280;46415;47.536;19.066;2023-02-02T17:40:21;100605.59;;;3.80;94.59
60583;BME280;46415;47.536;19.066;2023-02-02T17:43:25;100614.03;;;3.89;94.86
60583;BME280;46415;47.536;19.066;2023-02-02T17:46:28;100608.09;;;3.86;95.38
60583;BME280;46415;47.536;19.066;2023-02-02T17:49:32;100616.56;;;3.91;94.54
60583;BME280;46415;47.536;19.066;2023-02-02T17:52:38;100615.66;;;3.93;94.42
60583;BME280;46415;47.536;19.066;2023-02-02T17:55:42;100627.78;;;3.84;95.55
60583;BME280;46415;47.536;19.066;2023-02-02T17:58:45;100623.44;;;3.89;95.53
60583;BME280;46415;47.536;19.066;2023-02-02T18:01:50;100624.50;;;3.73;96.87
60583;BME280;46415;47.536;19.066;2023-02-02T18:04:54;100619.31;;;3.76;96.98
60583;BME280;46415;47.536;19.066;2023-02-02T18:07:56;100626.22;;;3.70;98.06
60583;BME280;46415;47.536;19.066;2023-02-02T18:10:59;100619.38;;;3.69;98.01
60583;BME280;46415;47.536;19.066;2023-02-02T18:14:02;100624.53;;;3.69;98.26
60583;BME280;46415;47.536;19.066;2023-02-02T18:17:05;100620.31;;;3.64;99.18
60583;BME280;46415;47.536;19.066;2023-02-02T18:20:13;100618.66;;;3.58;99.37
60583;BME280;46415;47.536;19.066;2023-02-02T18:23:17;100639.97;;;3.66;98.89
60583;BME280;46415;47.536;19.066;2023-02-02T18:26:21;100626.34;;;3.61;99.18
60583;BME280;46415;47.536;19.066;2023-02-02T18:29:24;100649.50;;;3.55;100.00